Boca Raton, FL (33431)

9:34 AM EDT on July 23, 2016 (GMT -0400)
University Gardens | | Change Station

Elev 39 ft 26.39 °N, 80.09 °W | Updated 331 days ago

Partly Cloudy
Partly Cloudy
87 °F
Feels Like 96 °F
N
8
Wind Variable Wind from East
Gusts mph

Today
High -- | Low -- °F
--% Chance of Precip.
Yesterday
High -- | Low -- °F
Precip. -- in
Pressure 30.03 in
Visibility 10.0 miles
Clouds Few 2500 ft
Few 25000 ft
Heat Index 96 °F
Dew Point 74 °F
Humidity 66%
Rainfall in
Snow Depth Not available.
6:41 AM 8:12 PM
Waning Gibbous, 85% visible
METAR KPMP 231253Z 00000KT 10SM FEW025 FEW250 28/24 A3003 RMK AO2 SLP168 T02830239
Pressure 30.03 in
Visibility 10.0 miles
Clouds Few 2500 ft
Few 25000 ft
Heat Index 96 °F
Dew Point 74 °F
Humidity 66%
Rainfall in
Snow Depth Not available.
6:41 AM 8:12 PM
Waning Gibbous, 85% visible
METAR KPMP 231253Z 00000KT 10SM FEW025 FEW250 28/24 A3003 RMK AO2 SLP168 T02830239

10-Day Weather Forecast

Almanac

Astronomy

Jul. 23, 2016 Rise Set
Actual Time
Civil Twilight
Nautical Twilight
Astronomical Twilight
Moon
Length of Visible Light
Length of Day
Tomorrow will be .
, % of the Moon is Illuminated

Today's Extremes

State Highs State Lows

Community

WunderPhotos

Upload Photos

1,926,818 photos uploaded!

WunderBlog® & News

Nearby

Air Quality

  Air Quality AQ Index Pollutant
Not available.

Snow Depth

Station Depth Elevation

Earthquake Activity

City Distance Mag. Time & Date
Minimum magnitude displayed is 2.5.

Coastal Water Temperatures

Place Temperature

Stations

Nearby Weather Stations

Station Location Temp. Windchill Dew Point Humidity Wind Precip. Elev Updated Type
                   

Watches & Warnings

There are currently no watches in effect.